Time;durP1;ratioP1;P1;durP2;ratioP2;P2;SDS_P1;SDS_P2;PMS_P1;PMS_P2;Temp;Humidity;BMP_temperature;BMP_pressure;BME280_temperature;BME280_humidity;BME280_pressure;Samples;Min_cycle;Max_cycle;Signal;HPM_P1;HPM_P2
2022/05/30 00:00:16;;;;;;;9.65;2.72;;;;;;;7.94;100.00;101314.66;4922365;29;20048;-76
2022/05/30 00:02:44;;;;;;;7.90;2.20;;;;;;;7.91;100.00;101315.50;4943986;28;20055;-76
2022/05/30 00:05:14;;;;;;;9.55;2.47;;;;;;;7.89;100.00;101322.44;4938939;28;20059;-76
2022/05/30 00:07:43;;;;;;;7.22;2.22;;;;;;;7.89;100.00;101321.56;4894487;29;20047;-77
2022/05/30 00:10:12;;;;;;;4.97;2.42;;;;;;;7.91;100.00;101333.00;4922476;29;20059;-77
2022/05/30 00:12:41;;;;;;;4.75;2.30;;;;;;;7.95;100.00;101321.69;4927383;29;20067;-77
2022/05/30 00:15:14;;;;;;;9.43;2.75;;;;;;;8.00;100.00;101327.94;4919839;29;20048;-77
2022/05/30 00:17:42;;;;;;;7.68;2.45;;;;;;;8.05;100.00;101321.03;4919748;28;20060;-77
2022/05/30 00:20:12;;;;;;;4.75;2.38;;;;;;;8.06;100.00;101320.19;4939286;28;20048;-76
2022/05/30 00:22:40;;;;;;;5.57;2.35;;;;;;;8.08;100.00;101323.72;4922942;29;20056;-76
2022/05/30 00:25:09;;;;;;;7.45;2.03;;;;;;;8.09;100.00;101325.50;4903561;28;20052;-76
2022/05/30 00:27:38;;;;;;;4.57;2.17;;;;;;;8.11;100.00;101325.53;4925228;29;20051;-76
2022/05/30 00:30:07;;;;;;;5.15;2.50;;;;;;;8.13;100.00;101313.34;4939900;28;20063;-76
2022/05/30 00:32:36;;;;;;;7.10;2.80;;;;;;;8.15;100.00;101317.75;4918114;29;20051;-76
2022/05/30 00:35:05;;;;;;;6.90;2.42;;;;;;;8.17;100.00;101317.78;4930568;28;20506;-76
2022/05/30 00:37:34;;;;;;;7.05;2.83;;;;;;;8.16;100.00;101322.13;4935858;28;20043;-76
2022/05/30 00:40:03;;;;;;;5.88;2.20;;;;;;;8.12;100.00;101316.81;4906921;28;20050;-76
2022/05/30 00:42:33;;;;;;;8.77;3.77;;;;;;;8.11;100.00;101312.41;4934344;28;20043;-76
2022/05/30 00:45:02;;;;;;;5.13;2.40;;;;;;;8.07;100.00;101316.72;4928838;28;20043;-76
2022/05/30 00:47:31;;;;;;;5.30;2.22;;;;;;;8.07;100.00;101313.19;4927945;28;20322;-76
2022/05/30 00:49:59;;;;;;;5.75;2.20;;;;;;;8.09;100.00;101311.47;4919083;29;20052;-76
2022/05/30 00:52:33;;;;;;;7.20;2.17;;;;;;;8.10;100.00;101314.16;4935256;29;20031;-76
2022/05/30 00:55:15;;;;;;;6.63;2.45;;;;;;;8.11;100.00;101304.53;4911588;28;20040;-77
2022/05/30 00:57:47;;;;;;;6.68;2.97;;;;;;;8.14;100.00;101307.22;4944092;28;20044;-77
2022/05/30 01:00:22;;;;;;;6.68;2.53;;;;;;;8.15;100.00;101309.88;4926481;29;20047;-77
2022/05/30 01:08:32;;;;;;;11.30;3.08;;;;;;;8.07;100.00;101313.19;4913853;29;20047;-75
2022/05/30 01:11:00;;;;;;;7.10;2.88;;;;;;;8.03;100.00;101303.50;4896317;29;20051;-76
2022/05/30 01:13:29;;;;;;;6.85;2.45;;;;;;;8.02;100.00;101312.22;4925310;29;20246;-76
2022/05/30 01:15:57;;;;;;;4.10;2.13;;;;;;;8.00;100.00;101304.31;4929772;28;20048;-75
2022/05/30 01:18:39;;;;;;;6.40;3.08;;;;;;;8.04;100.00;101305.28;4932460;28;20277;-75
2022/05/30 01:21:32;;;;;;;6.65;2.53;;;;;;;8.08;100.00;101305.34;4941891;28;20047;-75
2022/05/30 01:24:19;;;;;;;5.68;2.33;;;;;;;8.10;100.00;101302.78;4923884;29;20043;-76
2022/05/30 01:27:26;;;;;;;5.40;2.30;;;;;;;8.07;100.00;101294.81;4875932;28;20046;-76
2022/05/30 01:30:01;;;;;;;5.00;2.17;;;;;;;8.02;100.00;101286.88;4946179;28;20043;-76
2022/05/30 01:32:30;;;;;;;4.28;2.53;;;;;;;7.96;100.00;101284.13;4909821;29;20702;-76
2022/05/30 01:34:59;;;;;;;7.72;2.70;;;;;;;7.93;100.00;101297.16;4925348;29;20040;-76
2022/05/30 01:37:34;;;;;;;8.05;2.53;;;;;;;7.90;100.00;101292.75;4940870;28;20036;-76
2022/05/30 01:40:04;;;;;;;7.40;2.42;;;;;;;7.86;100.00;101290.00;4940042;28;20051;-76
2022/05/30 01:42:35;;;;;;;4.07;2.70;;;;;;;7.83;100.00;101290.84;4896959;29;20043;-76
2022/05/30 01:45:04;;;;;;;7.85;2.75;;;;;;;7.81;100.00;101289.94;4928351;29;20039;-76
2022/05/30 01:47:33;;;;;;;4.53;2.40;;;;;;;7.80;100.00;101290.75;4943693;28;20043;-75
2022/05/30 01:50:04;;;;;;;5.43;2.33;;;;;;;7.80;100.00;101288.13;4936116;28;20047;-75
2022/05/30 01:52:36;;;;;;;3.92;2.22;;;;;;;7.77;100.00;101286.34;4938972;28;20043;-75
2022/05/30 01:55:05;;;;;;;5.13;1.98;;;;;;;7.76;100.00;101284.56;4942755;28;20048;-76
2022/05/30 01:57:43;;;;;;;9.20;2.75;;;;;;;7.74;100.00;101274.91;4890691;28;20028;-76
2022/05/30 02:00:47;;;;;;;3.83;2.30;;;;;;;7.72;100.00;101276.59;4927987;29;20544;-75
2022/05/30 02:03:16;;;;;;;5.82;2.47;;;;;;;7.69;100.00;101269.53;4908507;29;20051;-77
2022/05/30 02:05:44;;;;;;;5.00;2.50;;;;;;;7.69;100.00;101264.28;4910030;29;20047;-76
2022/05/30 02:08:16;;;;;;;5.03;2.53;;;;;;;7.66;100.00;101272.09;4926179;29;20048;-75
2022/05/30 02:10:44;;;;;;;4.30;2.25;;;;;;;7.61;100.00;101263.25;4899063;29;20040;-75
2022/05/30 02:13:14;;;;;;;8.93;3.08;;;;;;;7.58;100.00;101263.16;4892265;29;20055;-75
2022/05/30 02:18:55;;;;;;;6.35;2.28;;;;;;;7.48;100.00;101264.69;4915848;29;20044;-75
2022/05/30 02:21:30;;;;;;;4.93;2.30;;;;;;;7.42;100.00;101254.09;4903943;29;20273;-75
2022/05/30 02:23:59;;;;;;;7.55;2.78;;;;;;;7.38;100.00;101270.59;4945318;28;20051;-75
2022/05/30 02:26:30;;;;;;;9.02;2.80;;;;;;;7.36;100.00;101262.69;4942195;28;20525;-76
2022/05/30 02:28:59;;;;;;;6.07;2.53;;;;;;;7.35;100.00;101258.31;4873100;29;20536;-77
2022/05/30 02:31:28;;;;;;;5.03;2.40;;;;;;;7.33;100.00;101262.63;4942012;28;20044;-75
2022/05/30 02:36:44;;;;;;;8.15;3.20;;;;;;;7.31;100.00;101259.06;4927380;29;20052;-75
2022/05/30 02:39:18;;;;;;;9.52;2.75;;;;;;;7.30;100.00;101262.56;4931074;28;20398;-76
2022/05/30 02:42:07;;;;;;;6.25;2.78;;;;;;;7.26;100.00;101265.06;4937298;28;20051;-75
2022/05/30 02:44:37;;;;;;;8.30;2.95;;;;;;;7.21;100.00;101262.34;4895704;29;20051;-77
2022/05/30 02:47:06;;;;;;;3.63;2.95;;;;;;;7.19;100.00;101264.03;4910432;29;20047;-75
2022/05/30 02:49:38;;;;;;;8.05;2.95;;;;;;;7.15;100.00;101267.44;4912862;29;20051;-77
2022/05/30 02:52:06;;;;;;;8.27;3.33;;;;;;;7.13;100.00;101264.78;4928212;29;20122;-77
2022/05/30 02:54:35;;;;;;;6.15;3.00;;;;;;;7.12;100.00;101273.47;4917463;29;20251;-75
2022/05/30 02:57:04;;;;;;;5.05;2.70;;;;;;;7.10;100.00;101269.06;4924996;29;20044;-75
2022/05/30 02:59:33;;;;;;;3.35;2.60;;;;;;;7.07;100.00;101267.25;4863696;29;20245;-77
2022/05/30 03:02:06;;;;;;;6.13;3.05;;;;;;;7.05;100.00;101265.44;4931612;28;20048;-76
2022/05/30 03:04:34;;;;;;;4.85;3.10;;;;;;;7.05;100.00;101260.19;4932594;28;20056;-76
2022/05/30 03:07:06;;;;;;;7.57;3.00;;;;;;;7.03;100.00;101263.69;4916378;29;20043;-77
2022/05/30 03:09:35;;;;;;;5.18;2.95;;;;;;;7.05;100.00;101278.53;4935840;28;20167;-76
2022/05/30 03:12:10;;;;;;;10.73;3.45;;;;;;;7.04;100.00;101277.66;4937509;28;20047;-77
2022/05/30 03:14:38;;;;;;;5.30;2.70;;;;;;;7.07;100.00;101266.34;4880710;29;20415;-76
2022/05/30 03:17:08;;;;;;;3.15;2.63;;;;;;;7.10;100.00;101269.06;4894999;29;20050;-76
2022/05/30 03:19:39;;;;;;;5.78;2.47;;;;;;;7.10;100.00;101259.47;4910357;29;20039;-76
2022/05/30 03:22:08;;;;;;;6.07;2.78;;;;;;;7.13;100.00;101256.91;4924209;29;20043;-76
2022/05/30 03:25:09;;;;;;;7.30;2.92;;;;;;;7.12;100.00;101263.00;4923639;29;20055;-76
2022/05/30 03:27:38;;;;;;;5.37;2.57;;;;;;;7.11;100.00;101263.00;4926513;29;20043;-76
2022/05/30 03:30:11;;;;;;;3.38;2.10;;;;;;;7.13;100.00;101263.91;4859871;29;20300;-75
2022/05/30 03:32:41;;;;;;;6.05;2.20;;;;;;;7.13;100.00;101258.66;4932855;29;20044;-75
2022/05/30 03:35:11;;;;;;;5.95;2.90;;;;;;;7.10;100.00;101263.81;4932249;28;20039;-75
2022/05/30 03:37:45;;;;;;;4.88;2.58;;;;;;;7.10;100.00;101259.47;4942980;28;20043;-75
2022/05/30 03:40:26;;;;;;;9.25;2.35;;;;;;;7.14;100.00;101270.91;4922846;28;20273;-75
2022/05/30 03:43:13;;;;;;;2.70;2.10;;;;;;;7.15;100.00;101268.31;4922809;29;20043;-76
2022/05/30 03:45:43;;;;;;;5.63;2.33;;;;;;;7.18;100.00;101265.78;4897132;29;20044;-76
2022/05/30 03:48:14;;;;;;;3.83;2.13;;;;;;;7.18;100.00;101263.16;4925363;29;20056;-76
2022/05/30 03:50:45;;;;;;;3.83;2.30;;;;;;;7.20;100.00;101279.81;4912557;29;20039;-76
2022/05/30 03:53:13;;;;;;;5.60;2.57;;;;;;;7.20;100.00;101271.03;4923694;29;20044;-76
2022/05/30 03:55:44;;;;;;;3.00;2.33;;;;;;;7.17;100.00;101271.88;4904779;29;20063;-75
2022/05/30 03:58:16;;;;;;;8.05;2.30;;;;;;;7.19;100.00;101271.91;4939953;28;20509;-77
2022/05/30 04:00:45;;;;;;;6.97;2.40;;;;;;;7.18;100.00;101272.75;4897298;29;20047;-76
2022/05/30 04:03:17;;;;;;;2.65;2.28;;;;;;;7.17;100.00;101271.88;4921793;29;20050;-76
2022/05/30 04:05:46;;;;;;;4.22;2.60;;;;;;;7.19;100.00;101277.16;4928793;29;20044;-76
2022/05/30 04:08:15;;;;;;;4.05;2.80;;;;;;;7.19;100.00;101274.53;4930033;28;20363;-76
2022/05/30 04:10:46;;;;;;;2.65;2.40;;;;;;;7.18;100.00;101273.66;4915799;29;20044;-76
2022/05/30 04:13:21;;;;;;;6.13;2.90;;;;;;;7.18;100.00;101278.00;4895092;29;20266;-76
2022/05/30 04:16:18;;;;;;;5.85;2.10;;;;;;;7.16;100.00;101267.47;4876391;29;20457;-77
2022/05/30 04:18:51;;;;;;;4.72;2.22;;;;;;;7.14;100.00;101270.91;4938409;28;20109;-76
2022/05/30 04:21:19;;;;;;;5.95;3.03;;;;;;;7.14;100.00;101265.66;4922783;29;20070;-77
2022/05/30 04:23:48;;;;;;;5.22;3.00;;;;;;;7.12;100.00;101278.72;4926111;29;20770;-76
2022/05/30 04:26:20;;;;;;;5.00;3.70;;;;;;;7.14;100.00;101273.53;4898335;29;20091;-77
2022/05/30 04:28:52;;;;;;;5.95;3.40;;;;;;;7.15;100.00;101270.06;4922374;29;20054;-75
2022/05/30 04:31:41;;;;;;;5.50;3.00;;;;;;;7.17;100.00;101271.88;4905148;28;20039;-75
2022/05/30 04:34:13;;;;;;;4.65;2.95;;;;;;;7.16;100.00;101274.44;4906881;29;20401;-75
2022/05/30 04:36:41;;;;;;;3.03;2.25;;;;;;;7.16;100.00;101269.19;4936833;28;20047;-76
2022/05/30 04:39:10;;;;;;;3.83;2.80;;;;;;;7.19;100.00;101269.28;4923501;29;20040;-75
2022/05/30 04:42:13;;;;;;;3.42;2.42;;;;;;;7.20;100.00;101271.94;4876627;29;20055;-76
2022/05/30 04:45:25;;;;;;;7.85;3.10;;;;;;;7.22;100.00;101269.34;4874539;29;20322;-75
2022/05/30 04:48:09;;;;;;;6.80;3.08;;;;;;;7.25;100.00;101271.16;4849849;29;20052;-75
2022/05/30 04:50:38;;;;;;;6.63;2.22;;;;;;;7.29;100.00;101270.38;4906352;29;20056;-75
2022/05/30 04:53:09;;;;;;;4.75;2.50;;;;;;;7.33;100.00;101275.72;4918978;29;20043;-75
2022/05/30 04:56:04;;;;;;;2.40;2.20;;;;;;;7.37;100.00;101271.44;4918851;29;20048;-76
2022/05/30 04:58:44;;;;;;;4.70;2.83;;;;;;;7.42;100.00;101275.94;4931172;28;20036;-76
2022/05/30 05:01:17;;;;;;;4.13;2.78;;;;;;;7.46;100.00;101268.16;4904092;29;20602;-76
2022/05/30 05:03:46;;;;;;;4.35;2.50;;;;;;;7.51;100.00;101269.16;4890430;28;20392;-76
2022/05/30 05:06:18;;;;;;;4.45;2.20;;;;;;;7.58;100.00;101273.66;4905398;29;20052;-76
2022/05/30 05:09:06;;;;;;;5.78;2.25;;;;;;;7.63;100.00;101277.28;4933930;29;20051;-76
2022/05/30 05:11:37;;;;;;;4.55;3.42;;;;;;;7.73;100.00;101284.50;4939941;28;20055;-76
2022/05/30 05:14:24;;;;;;;3.53;2.58;;;;;;;8.00;100.00;101285.94;4919835;28;20083;-76
2022/05/30 05:17:11;;;;;;;6.13;2.63;;;;;;;8.19;100.00;101281.97;4917145;29;20051;-76
2022/05/30 05:19:41;;;;;;;4.78;2.47;;;;;;;8.57;100.00;101282.72;4881712;29;20048;-76
2022/05/30 05:22:15;;;;;;;3.08;2.13;;;;;;;9.01;100.00;101283.47;4918056;29;20056;-75
2022/05/30 05:24:45;;;;;;;4.57;2.00;;;;;;;9.10;100.00;101279.25;4923925;29;20159;-76
2022/05/30 05:27:17;;;;;;;6.72;2.25;;;;;;;9.12;100.00;101282.78;4880751;29;20048;-75
2022/05/30 05:29:49;;;;;;;4.75;1.88;;;;;;;9.08;100.00;101280.97;4929880;28;20517;-77
2022/05/30 05:32:17;;;;;;;6.25;2.05;;;;;;;9.02;100.00;101293.09;4905371;29;20048;-77
2022/05/30 05:34:50;;;;;;;6.65;2.47;;;;;;;8.99;100.00;101291.31;4887475;29;20067;-76
2022/05/30 05:37:19;;;;;;;7.72;2.45;;;;;;;8.98;100.00;101295.69;4904472;29;20039;-77
2022/05/30 05:39:55;;;;;;;5.22;2.03;;;;;;;8.98;100.00;101295.69;4942374;28;20046;-76
2022/05/30 05:42:24;;;;;;;5.47;2.35;;;;;;;9.02;100.00;101295.72;4937497;28;20184;-77
2022/05/30 05:44:53;;;;;;;4.38;2.53;;;;;;;9.03;100.00;101297.50;4895498;29;20043;-77
2022/05/30 05:47:22;;;;;;;2.97;1.77;;;;;;;9.01;100.00;101299.25;4917043;29;20714;-79
2022/05/30 05:49:57;;;;;;;3.28;1.92;;;;;;;9.00;100.00;101307.97;4854983;29;20043;-76
2022/05/30 05:52:35;;;;;;;6.00;2.13;;;;;;;9.00;100.00;101303.63;4922933;29;20044;-76
2022/05/30 05:55:12;;;;;;;4.60;1.60;;;;;;;9.03;100.00;101303.66;4893425;29;20040;-77
2022/05/30 05:57:41;;;;;;;7.07;1.75;;;;;;;9.08;100.00;101301.13;4926570;29;20374;-78
2022/05/30 06:00:10;;;;;;;2.42;1.48;;;;;;;9.10;100.00;101295.00;4881893;29;20036;-76
2022/05/30 06:02:46;;;;;;;3.88;1.58;;;;;;;9.15;100.00;101301.25;4925137;29;20039;-76
2022/05/30 06:05:20;;;;;;;2.42;2.10;;;;;;;9.17;100.00;101298.63;4906086;29;20365;-77
2022/05/30 06:08:25;;;;;;;3.00;1.80;;;;;;;9.25;100.00;101299.63;4916239;29;20055;-77
2022/05/30 06:11:06;;;;;;;3.22;1.65;;;;;;;9.27;100.00;101310.19;4901037;29;20875;-76
2022/05/30 06:13:41;;;;;;;2.70;1.60;;;;;;;9.25;100.00;101307.53;4906595;29;20529;-76
2022/05/30 06:16:28;;;;;;;1.70;1.50;;;;;;;9.25;100.00;101310.16;4915851;29;20040;-76
2022/05/30 06:18:59;;;;;;;3.92;1.55;;;;;;;9.24;100.00;101310.13;4906881;29;20028;-76
2022/05/30 06:21:30;;;;;;;3.80;1.38;;;;;;;9.27;100.00;101313.69;4896339;28;20067;-76
2022/05/30 06:24:01;;;;;;;2.45;1.60;;;;;;;9.34;100.00;101309.44;4933011;28;20051;-77
2022/05/30 06:26:44;;;;;;;4.25;1.40;;;;;;;9.42;100.00;101301.66;4902741;29;20043;-76
2022/05/30 06:29:28;;;;;;;2.15;1.40;;;;;;;9.48;100.00;101309.63;4913626;29;20520;-76
2022/05/30 06:31:58;;;;;;;1.42;1.30;;;;;;;9.56;100.00;101313.25;4916754;28;20051;-76
2022/05/30 06:34:28;;;;;;;3.72;2.58;;;;;;;9.68;100.00;101310.81;4938874;28;20043;-76
2022/05/30 06:36:57;;;;;;;3.28;1.70;;;;;;;9.82;100.00;101311.00;4928546;29;20050;-76
2022/05/30 06:39:27;;;;;;;2.15;1.20;;;;;;;9.93;100.00;101309.38;4869349;29;20040;-76
2022/05/30 06:42:10;;;;;;;6.20;1.80;;;;;;;10.08;100.00;101313.09;4907127;29;20501;-76
2022/05/30 06:45:07;;;;;;;3.55;1.40;;;;;;;10.27;100.00;101317.72;4920977;29;20044;-76
2022/05/30 06:47:54;;;;;;;2.10;1.40;;;;;;;10.56;100.00;101318.94;4925917;28;20051;-75
2022/05/30 06:50:51;;;;;;;6.47;1.50;;;;;;;10.69;100.00;101308.53;4915452;29;20241;-77
2022/05/30 06:53:20;;;;;;;3.35;1.50;;;;;;;10.75;100.00;101317.38;4900714;28;20046;-77
2022/05/30 06:55:55;;;;;;;4.15;1.35;;;;;;;10.76;100.00;101322.69;4921701;28;20055;-76
2022/05/30 06:58:24;;;;;;;2.72;1.27;;;;;;;10.72;100.00;101318.25;4863340;29;20048;-76
2022/05/30 07:01:00;;;;;;;3.07;1.07;;;;;;;10.76;100.00;101314.78;4915388;28;20056;-76
2022/05/30 07:03:34;;;;;;;;;;;;;;;10.82;100.00;101309.56;4912546;29;20179;-76
2022/05/30 07:06:25;;;;;;;0.88;0.80;;;;;;;10.92;100.00;101306.13;4923405;29;19930;-76
2022/05/30 07:09:12;;;;;;;0.95;0.88;;;;;;;11.04;100.00;101312.38;4880151;29;20054;-76
2022/05/30 07:11:59;;;;;;;0.82;0.70;;;;;;;11.16;100.00;101314.25;4922179;28;20055;-77
2022/05/30 07:14:28;;;;;;;1.00;0.90;;;;;;;11.22;100.00;101320.44;4931392;28;20046;-77
2022/05/30 07:16:56;;;;;;;3.35;1.10;;;;;;;11.22;100.00;101317.81;4938866;28;20036;-77
2022/05/30 07:19:25;;;;;;;0.70;0.70;;;;;;;11.28;100.00;101322.25;4922450;28;20048;-77
2022/05/30 07:22:02;;;;;;;0.80;0.75;;;;;;;11.38;100.00;101324.09;4928051;29;20043;-76
2022/05/30 07:24:49;;;;;;;2.53;1.20;;;;;;;11.55;100.00;101323.31;4879213;29;20051;-76
2022/05/30 07:27:40;;;;;;;1.20;0.70;;;;;;;11.74;100.00;101322.59;4932759;28;20043;-76
2022/05/30 07:30:27;;;;;;;1.25;0.55;;;;;;;11.76;100.00;101325.22;4918711;29;20062;-76
2022/05/30 07:33:15;;;;;;;1.17;0.93;;;;;;;11.66;100.00;101340.13;4927193;28;20040;-77
2022/05/30 07:36:25;;;;;;;0.60;0.60;;;;;;;11.69;100.00;101330.47;4913421;29;20056;-76
2022/05/30 07:39:23;;;;;;;1.75;0.95;;;;;;;11.78;100.00;101329.66;4913357;29;20059;-78
2022/05/30 07:42:10;;;;;;;0.80;0.80;;;;;;;11.89;100.00;101335.91;4944687;28;20062;-75
2022/05/30 07:44:57;;;;;;;1.33;0.70;;;;;;;11.92;100.00;101340.31;4927401;29;20050;-76
2022/05/30 07:47:41;;;;;;;3.15;0.63;;;;;;;11.87;100.00;101334.06;4909007;29;20052;-77
2022/05/30 07:50:28;;;;;;;0.50;0.50;;;;;;;11.93;100.00;101330.63;4928865;28;20052;-76
2022/05/30 07:53:05;;;;;;;0.98;0.65;;;;;;;12.11;100.00;101337.78;4924734;28;20071;-76
2022/05/30 07:55:44;;;;;;;0.70;0.70;;;;;;;12.29;100.00;101336.09;4894223;28;20617;-77
2022/05/30 07:58:13;;;;;;;1.60;0.70;;;;;;;12.46;100.00;101330.88;4902349;29;20051;-76
2022/05/30 08:00:47;;;;;;;1.52;0.57;;;;;;;12.61;100.00;101334.44;4924619;29;20040;-77
2022/05/30 08:03:21;;;;;;;2.35;0.70;;;;;;;12.63;100.00;101327.41;4910422;29;20044;-77
2022/05/30 08:06:14;;;;;;;1.10;0.50;;;;;;;12.65;100.00;101320.34;4921836;29;20051;-77
2022/05/30 08:09:01;;;;;;;2.17;0.70;;;;;;;12.58;100.00;101334.41;4934321;28;20036;-77
2022/05/30 08:11:30;;;;;;;1.40;0.80;;;;;;;12.60;100.00;101325.59;4882350;29;20032;-76
2022/05/30 08:14:08;;;;;;;2.70;0.70;;;;;;;12.72;100.00;101310.66;4918575;29;20048;-76
2022/05/30 08:16:37;;;;;;;0.60;0.60;;;;;;;12.69;100.00;101322.09;4919230;29;20064;-76
2022/05/30 08:19:24;;;;;;;4.07;0.77;;;;;;;12.71;100.00;101330.06;4921346;28;20035;-76
2022/05/30 08:22:13;;;;;;;1.40;0.85;;;;;;;12.85;100.00;101331.84;4914168;28;20040;-77
2022/05/30 08:24:47;;;;;;;1.40;0.70;;;;;;;12.98;100.00;101330.06;4897178;29;20070;-76
2022/05/30 08:27:22;;;;;;;2.08;0.70;;;;;;;12.81;100.00;101322.13;4898957;28;20269;-76
2022/05/30 08:30:00;;;;;;;5.70;0.93;;;;;;;12.74;100.00;101323.00;4902515;29;20062;-76
2022/05/30 08:32:33;;;;;;;1.23;0.60;;;;;;;12.74;100.00;101324.75;4917324;28;20370;-76
2022/05/30 08:35:11;;;;;;;1.23;0.63;;;;;;;12.76;100.00;101329.19;4899520;29;20043;-76
2022/05/30 08:37:40;;;;;;;1.92;1.17;;;;;;;12.83;100.00;101330.94;4909727;28;20036;-76
2022/05/30 08:42:59;;;;;;;0.60;0.60;;;;;;;13.09;100.00;101330.09;4902326;28;20497;-76
2022/05/30 08:45:46;;;;;;;1.23;0.73;;;;;;;13.11;100.00;101323.03;4921976;28;20039;-76
2022/05/30 08:48:52;;;;;;;0.73;0.68;;;;;;;12.96;97.99;101338.91;4910688;28;20040;-76
2022/05/30 08:51:46;;;;;;;3.15;0.80;;;;;;;12.77;99.71;101351.22;4926515;28;20373;-76
2022/05/30 08:54:27;;;;;;;4.40;1.05;;;;;;;12.45;100.00;101355.50;4904894;29;20051;-76
2022/05/30 08:57:40;;;;;;;1.42;1.00;;;;;;;12.08;100.00;101362.41;4884465;29;20398;-76
2022/05/30 09:00:20;;;;;;;1.52;1.10;;;;;;;11.67;100.00;101360.38;4941082;28;20039;-76
2022/05/30 09:03:33;;;;;;;1.80;1.00;;;;;;;11.31;100.00;101360.09;4900874;29;20048;-76
2022/05/30 09:06:06;;;;;;;;;;;;;;;11.10;100.00;101355.53;4938426;28;20043;-76
2022/05/30 09:08:45;;;;;;;2.65;1.33;;;;;;;10.99;100.00;101366.84;4925828;28;20132;-76
2022/05/30 09:11:43;;;;;;;2.05;0.70;;;;;;;10.92;100.00;101350.94;4925435;28;20116;-76
2022/05/30 09:14:34;;;;;;;2.25;1.10;;;;;;;10.92;100.00;101353.56;4898980;29;20370;-77
2022/05/30 09:17:08;;;;;;;1.73;0.90;;;;;;;10.96;100.00;101358.91;4913935;29;20401;-76
2022/05/30 09:19:37;;;;;;;1.48;0.82;;;;;;;10.98;100.00;101352.75;4917885;28;20062;-76
2022/05/30 09:22:08;;;;;;;4.22;1.08;;;;;;;11.04;100.00;101355.47;4886293;29;20039;-76
2022/05/30 09:27:40;;;;;;;2.35;1.05;;;;;;;11.23;100.00;101358.28;4910213;29;20047;-76
2022/05/30 09:30:48;;;;;;;2.63;1.10;;;;;;;11.38;100.00;101362.78;4873040;29;20052;-75
2022/05/30 09:33:41;;;;;;;1.10;1.00;;;;;;;11.51;100.00;101356.72;4916885;29;20044;-76
2022/05/30 09:36:33;;;;;;;0.90;0.90;;;;;;;11.56;100.00;101354.13;4907449;29;20044;-76
2022/05/30 09:39:27;;;;;;;1.52;0.88;;;;;;;11.68;100.00;101360.38;4898983;29;20483;-77
2022/05/30 09:41:59;;;;;;;0.77;0.77;;;;;;;11.84;100.00;101361.34;4924441;29;20040;-75
2022/05/30 09:44:39;;;;;;;3.40;1.15;;;;;;;11.98;100.00;101350.03;4890108;29;20435;-77
2022/05/30 09:48:08;;;;;;;3.30;1.20;;;;;;;12.18;100.00;101356.28;4870433;29;20239;-76
2022/05/30 09:50:53;;;;;;;2.13;1.00;;;;;;;12.25;100.00;101354.59;4909998;29;20353;-76
2022/05/30 09:53:49;;;;;;;2.30;0.85;;;;;;;12.34;100.00;101348.44;4888721;29;20059;-76
2022/05/30 09:56:21;;;;;;;3.15;0.82;;;;;;;12.30;100.00;101358.09;4912883;28;20048;-76
2022/05/30 09:59:29;;;;;;;2.03;1.10;;;;;;;12.27;100.00;101358.09;4896426;29;20035;-76
2022/05/30 10:02:27;;;;;;;1.98;0.80;;;;;;;12.05;100.00;101357.13;4885228;29;20417;-76
2022/05/30 10:05:00;;;;;;;2.03;0.93;;;;;;;11.90;100.00;101356.13;4938073;28;20039;-76
2022/05/30 10:07:32;;;;;;;4.22;0.85;;;;;;;11.82;100.00;101362.25;4928028;28;20147;-75
2022/05/30 10:10:26;;;;;;;1.52;0.80;;;;;;;11.73;100.00;101363.03;4923221;28;20054;-77
2022/05/30 10:13:04;;;;;;;4.78;0.90;;;;;;;11.55;100.00;101357.63;4913849;29;20058;-75
2022/05/30 10:15:59;;;;;;;1.38;1.02;;;;;;;11.63;100.00;101370.03;4926953;29;20051;-76
2022/05/30 10:18:35;;;;;;;0.98;0.98;;;;;;;11.76;100.00;101368.38;4876361;28;20051;-76
2022/05/30 10:21:11;;;;;;;2.25;1.02;;;;;;;11.83;100.00;101383.38;4939740;28;20070;-76
2022/05/30 10:28:20;;;;;;;1.20;1.00;;;;;;;11.83;100.00;101390.38;4925516;28;20050;-76
2022/05/30 10:31:36;;;;;;;0.80;0.80;;;;;;;11.59;100.00;101393.75;4904552;29;20047;-76
2022/05/30 10:34:14;;;;;;;2.67;1.00;;;;;;;11.48;100.00;101391.03;4923560;29;20044;-76
2022/05/30 10:37:11;;;;;;;1.58;1.13;;;;;;;11.32;100.00;101403.19;4929405;28;20525;-76
2022/05/30 10:40:01;;;;;;;3.75;1.25;;;;;;;11.21;100.00;101389.91;4929758;28;20048;-76
2022/05/30 10:42:45;;;;;;;2.08;1.23;;;;;;;11.17;100.00;101393.41;4914183;28;20086;-76
2022/05/30 10:45:30;;;;;;;1.17;1.08;;;;;;;11.15;100.00;101395.13;4936055;28;20059;-76
2022/05/30 10:48:02;;;;;;;1.00;0.90;;;;;;;11.08;100.00;101395.94;4885585;29;20647;-77
2022/05/30 10:50:42;;;;;;;1.95;1.42;;;;;;;11.04;100.00;101396.75;4914735;28;20290;-77
2022/05/30 10:53:27;;;;;;;1.42;1.17;;;;;;;11.05;100.00;101398.53;4923579;28;20398;-77
2022/05/30 10:56:31;;;;;;;3.90;1.40;;;;;;;11.06;100.00;101395.94;4899066;28;20051;-77
2022/05/30 10:59:32;;;;;;;2.13;1.40;;;;;;;11.09;100.00;101390.66;4925764;28;20062;-77
2022/05/30 11:02:08;;;;;;;1.60;1.30;;;;;;;11.14;100.00;101396.00;4906740;29;20058;-76
2022/05/30 11:04:55;;;;;;;1.48;1.38;;;;;;;11.22;100.00;101390.78;4902785;28;20154;-77
2022/05/30 11:07:36;;;;;;;1.55;0.80;;;;;;;11.31;100.00;101396.16;4893680;29;20433;-77
2022/05/30 11:10:23;;;;;;;;;;;;;;;11.41;100.00;101399.75;4925958;28;20059;-75
2022/05/30 11:13:09;;;;;;;2.83;1.50;;;;;;;11.45;100.00;101396.28;4923815;29;19934;-76
2022/05/30 11:15:55;;;;;;;2.78;0.77;;;;;;;11.51;100.00;101405.13;4931065;28;20074;-76
2022/05/30 11:19:05;;;;;;;1.58;0.90;;;;;;;11.63;100.00;101409.63;4874634;29;20091;-76
2022/05/30 11:22:21;;;;;;;3.53;1.02;;;;;;;11.79;100.00;101405.31;4911647;29;20055;-76
2022/05/30 11:24:52;;;;;;;2.45;1.00;;;;;;;11.93;100.00;101402.84;4910888;29;20390;-76
2022/05/30 11:27:36;;;;;;;2.15;1.10;;;;;;;12.13;100.00;101404.69;4927057;28;20054;-76
2022/05/30 11:30:26;;;;;;;4.65;1.30;;;;;;;12.33;100.00;101407.47;4913592;29;20043;-76
2022/05/30 11:33:28;;;;;;;1.05;1.00;;;;;;;12.51;100.00;101411.94;4874204;29;20051;-76
2022/05/30 11:36:15;;;;;;;1.70;1.23;;;;;;;12.67;100.00;101404.06;4906924;29;20051;-76
2022/05/30 11:39:27;;;;;;;1.60;1.00;;;;;;;12.97;100.00;101415.63;4917176;29;20271;-76
2022/05/30 11:42:10;;;;;;;2.88;1.05;;;;;;;13.33;100.00;101408.66;4903632;29;20501;-76
2022/05/30 11:45:13;;;;;;;3.63;1.10;;;;;;;13.62;100.00;101415.72;4909882;29;20051;-76
2022/05/30 11:47:55;;;;;;;1.77;1.10;;;;;;;13.65;100.00;101413.06;4918638;29;20059;-78
2022/05/30 11:50:42;;;;;;;0.75;0.75;;;;;;;13.62;100.00;101406.00;4903667;28;20075;-76
2022/05/30 11:53:32;;;;;;;2.65;1.23;;;;;;;13.50;100.00;101413.97;4908938;28;20458;-76
2022/05/30 11:56:19;;;;;;;1.67;1.05;;;;;;;13.19;100.00;101418.31;4912093;29;20055;-76
2022/05/30 11:58:57;;;;;;;1.50;0.82;;;;;;;12.82;100.00;101423.53;4907950;28;20044;-77
2022/05/30 12:01:29;;;;;;;2.13;0.82;;;;;;;12.54;100.00;101423.41;4912614;29;20067;-77
2022/05/30 12:04:07;;;;;;;1.05;0.85;;;;;;;12.34;100.00;101425.06;4908888;28;20051;-76
2022/05/30 12:06:41;;;;;;;1.63;1.00;;;;;;;12.13;100.00;101432.00;4939443;28;20055;-77
2022/05/30 12:09:19;;;;;;;4.40;0.77;;;;;;;11.98;100.00;101437.19;4913166;29;20066;-77
2022/05/30 12:12:13;;;;;;;1.73;0.95;;;;;;;11.84;100.00;101424.72;4922004;28;20075;-77
2022/05/30 12:15:10;;;;;;;0.90;0.90;;;;;;;11.83;100.00;101428.28;4926402;28;20031;-77
2022/05/30 12:24:03;;;;;;;1.00;0.80;;;;;;;11.94;100.00;101440.69;4908244;29;20413;-77
2022/05/30 12:26:53;;;;;;;1.45;0.93;;;;;;;12.06;100.00;101436.38;4899246;29;20051;-76
2022/05/30 12:29:49;;;;;;;0.87;0.87;;;;;;;12.24;100.00;101434.72;4913127;29;20070;-76
2022/05/30 12:32:21;;;;;;;0.98;0.65;;;;;;;12.32;100.00;101432.09;4905450;28;20412;-77
2022/05/30 12:35:11;;;;;;;1.17;0.68;;;;;;;12.47;100.00;101440.97;4882364;29;20047;-77
2022/05/30 12:37:59;;;;;;;0.50;0.50;;;;;;;12.64;100.00;101433.13;4920474;29;20051;-76
2022/05/30 12:40:28;;;;;;;1.70;0.80;;;;;;;12.84;100.00;101427.94;4897741;29;20052;-77
2022/05/30 12:43:13;;;;;;;1.17;1.00;;;;;;;13.01;100.00;101429.75;4924123;29;20056;-77